Time;durP1;ratioP1;P1;durP2;ratioP2;P2;SDS_P1;SDS_P2;PMS_P1;PMS_P2;Temp;Humidity;BMP_temperature;BMP_pressure;BME280_temperature;BME280_humidity;BME280_pressure;Samples;Min_cycle;Max_cycle;Signal;HPM_P1;HPM_P2
2021/11/16 00:01:53;;;;;;;20.63;13.21;;;;;;;7.16;82.55;99927.53;2027299;77;22448;-79
2021/11/16 00:04:56;;;;;;;21.39;13.99;;;;;;;7.18;82.64;99920.69;2030265;79;20368;-79
2021/11/16 00:07:59;;;;;;;21.38;14.41;;;;;;;7.16;82.56;99924.06;2030372;79;20347;-79
2021/11/16 00:11:03;;;;;;;21.23;13.80;;;;;;;7.16;82.57;99926.66;2030184;79;20403;-79
2021/11/16 00:14:06;;;;;;;23.39;13.91;;;;;;;7.16;82.79;99921.50;2030423;79;20414;-79
2021/11/16 00:17:08;;;;;;;22.64;13.46;;;;;;;7.16;82.82;99918.91;2028944;77;22699;-79
2021/11/16 00:20:12;;;;;;;20.13;13.15;;;;;;;7.16;82.68;99918.91;2030705;79;20363;-79
2021/11/16 00:23:17;;;;;;;19.48;12.32;;;;;;;7.15;82.80;99918.03;2027276;79;20403;-79
2021/11/16 00:26:20;;;;;;;20.19;12.31;;;;;;;7.15;82.56;99910.28;2031283;79;20411;-79
2021/11/16 00:29:23;;;;;;;19.49;11.91;;;;;;;7.13;82.29;99904.22;2030689;79;20329;-79
2021/11/16 00:35:46;;;;;;;23.58;13.63;;;;;;;7.12;82.50;99902.50;2006402;69;20343;-79
2021/11/16 00:38:49;;;;;;;22.27;13.14;;;;;;;7.10;82.40;99909.34;2008110;80;20326;-79
2021/11/16 00:41:51;;;;;;;19.31;12.65;;;;;;;7.09;82.15;99906.75;1993902;81;20351;-79
2021/11/16 00:44:55;;;;;;;18.76;12.82;;;;;;;7.10;82.50;99905.91;1993818;80;20420;-79
2021/11/16 00:47:57;;;;;;;19.36;11.75;;;;;;;7.09;82.90;99906.75;1993393;81;20339;-79
2021/11/16 00:51:03;;;;;;;21.76;12.13;;;;;;;7.05;83.29;99907.53;1994943;80;20379;-79
2021/11/16 00:54:05;;;;;;;18.89;11.63;;;;;;;7.00;83.67;99912.59;1995129;81;20361;-79
2021/11/16 00:57:08;;;;;;;20.86;12.26;;;;;;;6.98;84.04;99922.03;1994284;81;20638;-79
2021/11/16 01:00:14;;;;;;;19.85;12.41;;;;;;;6.97;84.35;99922.88;1993639;80;20362;-79
2021/11/16 01:03:19;;;;;;;19.27;11.06;;;;;;;6.93;84.37;99915.91;1999457;81;20434;-79
2021/11/16 01:06:22;;;;;;;18.76;11.02;;;;;;;6.89;84.41;99919.28;2000741;81;20353;-79
2021/11/16 01:09:25;;;;;;;19.21;11.38;;;;;;;6.85;84.64;99910.63;1999254;81;20471;-79
2021/11/16 01:12:27;;;;;;;21.27;12.04;;;;;;;6.81;85.03;99908.81;1997100;81;20790;-79
2021/11/16 01:15:34;;;;;;;19.85;10.94;;;;;;;6.81;84.98;99910.50;1998609;77;22627;-79
2021/11/16 01:18:37;;;;;;;18.08;10.98;;;;;;;6.82;85.29;99909.66;1999887;80;20386;-79
2021/11/16 01:21:40;;;;;;;18.04;11.02;;;;;;;6.83;85.43;99909.72;2010259;80;20339;-79
2021/11/16 01:24:44;;;;;;;18.88;11.05;;;;;;;6.83;85.58;99909.72;2000568;80;20359;-79
2021/11/16 01:27:48;;;;;;;20.74;12.38;;;;;;;6.79;85.47;99904.47;2000837;80;20869;-79
2021/11/16 01:30:53;;;;;;;16.69;10.98;;;;;;;6.79;85.32;99907.03;1999612;78;24547;-79
2021/11/16 01:33:57;;;;;;;18.24;10.51;;;;;;;6.82;85.34;99908.00;2010937;80;20777;-79
2021/11/16 01:37:00;;;;;;;18.70;11.16;;;;;;;6.84;85.42;99897.69;2025752;80;20370;-79
2021/11/16 01:40:08;;;;;;;18.55;10.70;;;;;;;6.81;85.61;99901.06;2025987;80;20724;-79
2021/11/16 01:43:16;;;;;;;18.33;11.27;;;;;;;6.84;85.74;99901.16;2026880;80;20365;-79
2021/11/16 01:46:31;;;;;;;18.27;10.84;;;;;;;6.84;85.47;99900.28;2021030;78;23518;-79
2021/11/16 01:49:35;;;;;;;17.98;10.66;;;;;;;6.86;85.67;99903.75;2016957;80;20339;-79
2021/11/16 01:52:39;;;;;;;17.08;9.85;;;;;;;6.89;85.69;99903.81;2017074;80;20359;-79
2021/11/16 01:55:41;;;;;;;18.56;11.10;;;;;;;6.88;86.02;99905.50;2016298;80;20372;-79
2021/11/16 01:58:44;;;;;;;18.00;11.01;;;;;;;6.88;86.19;99905.50;2016771;80;20811;-79
2021/11/16 02:01:49;;;;;;;19.54;11.96;;;;;;;6.89;85.57;99903.81;2015331;77;22951;-79
2021/11/16 02:04:52;;;;;;;18.79;10.88;;;;;;;6.88;85.71;99891.75;2016943;80;20366;-79
2021/11/16 02:07:55;;;;;;;16.48;10.71;;;;;;;6.88;85.88;99895.19;2015895;80;20328;-79
2021/11/16 02:10:57;;;;;;;18.30;11.75;;;;;;;6.89;85.89;99894.34;2016618;80;20327;-79
2021/11/16 02:14:01;;;;;;;18.11;10.49;;;;;;;6.92;85.80;99883.22;2016670;80;21082;-79
2021/11/16 02:17:04;;;;;;;16.39;10.75;;;;;;;6.93;85.59;99869.44;2015262;77;20360;-80
2021/11/16 02:20:08;;;;;;;17.44;11.48;;;;;;;6.94;85.51;99878.94;2016924;80;20387;-79
2021/11/16 02:23:11;;;;;;;18.79;11.21;;;;;;;6.96;85.47;99877.25;2017340;80;20302;-79
2021/11/16 02:26:15;;;;;;;17.50;10.70;;;;;;;6.92;85.70;99873.75;2015390;80;20346;-79
2021/11/16 02:29:17;;;;;;;18.55;10.77;;;;;;;6.93;85.96;99877.19;2014449;80;20714;-79
2021/11/16 02:32:21;;;;;;;18.52;10.69;;;;;;;6.90;86.24;99867.69;2013677;78;23423;-79
2021/11/16 02:35:25;;;;;;;19.74;10.21;;;;;;;6.83;86.12;99860.69;2014805;80;20327;-79
2021/11/16 02:38:28;;;;;;;17.71;10.68;;;;;;;6.86;86.15;99876.22;2015576;80;20314;-80
2021/11/16 02:41:34;;;;;;;18.17;10.84;;;;;;;6.89;86.28;99865.94;2014820;80;20365;-79
2021/11/16 02:44:37;;;;;;;18.99;10.52;;;;;;;6.89;86.76;99865.94;2015255;80;20404;-79
2021/11/16 02:47:40;;;;;;;16.48;10.44;;;;;;;6.89;86.85;99867.66;2015287;78;21408;-79
2021/11/16 02:50:50;;;;;;;17.00;10.46;;;;;;;6.90;86.83;99864.25;2020665;80;20341;-80
2021/11/16 02:53:53;;;;;;;17.86;9.90;;;;;;;6.87;86.86;99862.47;2016766;80;20320;-79
2021/11/16 02:56:56;;;;;;;14.61;10.15;;;;;;;6.85;86.89;99859.00;2021350;80;20382;-79
2021/11/16 02:59:59;;;;;;;18.55;10.76;;;;;;;6.84;86.97;99857.28;2012973;80;21197;-79
2021/11/16 03:03:02;;;;;;;16.91;9.71;;;;;;;6.79;87.00;99856.28;2012414;77;23131;-79
2021/11/16 03:06:06;;;;;;;18.30;10.14;;;;;;;6.80;86.91;99849.41;2013485;80;20403;-79
2021/11/16 03:09:08;;;;;;;17.01;10.20;;;;;;;6.79;86.98;99852.84;2017093;80;20318;-79
2021/11/16 03:12:11;;;;;;;20.20;10.36;;;;;;;6.80;87.22;99847.72;2012121;80;20318;-80
2021/11/16 03:15:14;;;;;;;17.52;9.80;;;;;;;6.78;87.28;99849.41;2016025;80;20392;-79
2021/11/16 03:18:17;;;;;;;16.94;10.73;;;;;;;6.79;87.33;99842.53;2016507;78;23487;-79
2021/11/16 03:21:23;;;;;;;17.08;10.44;;;;;;;6.83;87.21;99849.50;2015211;80;20326;-79
2021/11/16 03:24:32;;;;;;;16.99;10.21;;;;;;;6.83;87.10;99837.47;2016296;80;20376;-79
2021/11/16 03:27:38;;;;;;;18.00;10.39;;;;;;;6.82;87.17;99845.16;2017078;80;20337;-79
2021/11/16 03:30:43;;;;;;;20.10;11.31;;;;;;;6.79;87.06;99845.97;2013526;78;25946;-79
2021/11/16 03:33:47;;;;;;;20.08;10.57;;;;;;;6.79;86.98;99837.34;2016236;80;20911;-79
2021/11/16 03:36:49;;;;;;;16.61;9.86;;;;;;;6.81;86.94;99838.25;2016613;80;20318;-79
2021/11/16 03:39:53;;;;;;;18.40;11.26;;;;;;;6.82;87.16;99845.16;2012881;80;20306;-79
2021/11/16 03:42:56;;;;;;;20.91;11.00;;;;;;;6.82;87.38;99838.31;2016731;80;20348;-79
2021/11/16 03:45:59;;;;;;;17.34;10.96;;;;;;;6.81;87.51;99833.09;2016537;78;25986;-79
2021/11/16 03:49:03;;;;;;;17.26;10.31;;;;;;;6.82;87.31;99829.66;2021509;80;20479;-79
2021/11/16 03:52:06;;;;;;;17.64;11.13;;;;;;;6.82;87.33;99833.16;2021459;80;20386;-79
2021/11/16 03:55:12;;;;;;;17.14;10.34;;;;;;;6.79;87.35;99827.91;2021323;80;20346;-79
2021/11/16 03:58:20;;;;;;;17.31;9.75;;;;;;;6.77;87.42;99839.91;2021657;80;20342;-79
2021/11/16 04:01:23;;;;;;;19.17;10.16;;;;;;;6.79;87.37;99839.94;2021330;77;25644;-79
2021/11/16 04:04:26;;;;;;;22.19;11.81;;;;;;;6.77;87.40;99841.63;2021233;80;20391;-79
2021/11/16 04:07:29;;;;;;;20.30;12.56;;;;;;;6.78;87.24;99833.91;2021370;80;20325;-79
2021/11/16 04:10:33;;;;;;;17.91;11.66;;;;;;;6.79;86.95;99822.75;2021841;80;20379;-79
2021/11/16 04:13:35;;;;;;;18.65;11.02;;;;;;;6.82;86.82;99824.50;2020566;80;20386;-79
2021/11/16 04:16:38;;;;;;;22.00;11.26;;;;;;;6.82;86.89;99829.66;2022693;77;21981;-79
2021/11/16 04:19:42;;;;;;;19.08;11.69;;;;;;;6.76;87.12;99826.97;2025754;80;20308;-79
2021/11/16 04:22:46;;;;;;;18.79;11.41;;;;;;;6.78;87.20;99836.50;2022575;80;20344;-79
2021/11/16 04:25:50;;;;;;;18.90;11.43;;;;;;;6.79;87.33;99833.06;2022680;80;20327;-79
2021/11/16 04:28:53;;;;;;;19.85;11.73;;;;;;;6.79;87.45;99837.34;2026180;80;20327;-79
2021/11/16 04:31:56;;;;;;;19.11;11.71;;;;;;;6.78;87.56;99840.78;2024692;80;20381;-79
2021/11/16 04:34:59;;;;;;;20.49;11.50;;;;;;;6.81;87.53;99831.38;2026193;80;20292;-80
2021/11/16 04:38:04;;;;;;;19.60;11.71;;;;;;;6.83;87.55;99829.72;2026020;80;20711;-79
2021/11/16 04:41:07;;;;;;;19.73;11.25;;;;;;;6.82;87.68;99835.72;2027421;80;20848;-79
2021/11/16 04:44:11;;;;;;;17.95;10.32;;;;;;;6.79;87.38;99832.19;2026591;80;20385;-80
2021/11/16 04:47:18;;;;;;;19.11;10.95;;;;;;;6.75;87.47;99830.41;2021532;77;26608;-80
2021/11/16 04:50:41;;;;;;;20.29;11.81;;;;;;;6.73;87.84;99834.69;2022051;80;20330;-80
2021/11/16 04:54:11;;;;;;;18.46;11.10;;;;;;;6.76;87.89;99834.72;2021052;80;20369;-79
2021/11/16 05:04:10;;;;;;;19.29;10.32;;;;;;;6.79;87.96;99834.78;2013508;80;20345;-79
2021/11/16 05:07:17;;;;;;;17.73;10.59;;;;;;;6.76;88.07;99837.31;2020497;80;20321;-80
2021/11/16 05:10:19;;;;;;;17.91;9.91;;;;;;;6.74;88.37;99834.69;2020354;80;20321;-79
2021/11/16 05:13:22;;;;;;;18.11;10.91;;;;;;;6.72;88.36;99828.66;2021127;80;20339;-79
2021/11/16 05:16:25;;;;;;;16.92;9.71;;;;;;;6.75;88.54;99825.25;2017854;77;28957;-79
2021/11/16 05:19:28;;;;;;;16.49;10.65;;;;;;;6.76;88.71;99822.69;2026858;80;20328;-79
2021/11/16 05:22:32;;;;;;;15.85;9.81;;;;;;;6.75;88.67;99826.13;2026667;80;20320;-79
2021/11/16 05:25:34;;;;;;;17.55;11.29;;;;;;;6.76;88.56;99827.84;2026263;80;20339;-79
2021/11/16 05:28:37;;;;;;;19.36;11.52;;;;;;;6.69;87.26;99830.31;2026175;80;20906;-80
2021/11/16 05:31:40;;;;;;;17.51;10.99;;;;;;;6.71;86.74;99826.91;2024883;77;23184;-79
2021/11/16 05:34:43;;;;;;;19.48;10.91;;;;;;;6.68;87.20;99828.56;2025888;80;20336;-79
2021/11/16 05:37:46;;;;;;;19.96;10.85;;;;;;;6.66;87.26;99831.13;2026289;80;20328;-79
2021/11/16 05:40:50;;;;;;;16.58;10.98;;;;;;;6.62;87.63;99826.72;2025845;80;20332;-80
2021/11/16 05:43:52;;;;;;;20.71;11.88;;;;;;;6.67;87.79;99830.28;2025470;80;20312;-79
2021/11/16 05:46:55;;;;;;;18.30;11.18;;;;;;;6.70;87.94;99822.59;2024434;77;21326;-79
2021/11/16 05:49:58;;;;;;;18.67;10.63;;;;;;;6.73;87.84;99832.97;2026134;80;20456;-79
2021/11/16 05:53:01;;;;;;;20.05;11.19;;;;;;;6.68;87.96;99824.28;2026011;80;20316;-79
2021/11/16 05:56:04;;;;;;;18.52;10.65;;;;;;;6.69;88.29;99828.59;2026432;80;20328;-79
2021/11/16 05:59:07;;;;;;;19.74;10.82;;;;;;;6.72;88.39;99820.03;2026475;80;21229;-79
2021/11/16 06:02:11;;;;;;;19.23;11.64;;;;;;;6.69;88.28;99820.84;2025498;77;25013;-79
2021/11/16 06:05:14;;;;;;;22.10;11.10;;;;;;;6.73;88.29;99832.09;2018762;80;20361;-79
2021/11/16 06:08:26;;;;;;;17.63;11.49;;;;;;;6.72;88.23;99830.38;2028655;80;20320;-80
2021/11/16 06:11:30;;;;;;;20.52;10.66;;;;;;;6.70;88.49;99824.31;2026483;80;20345;-79
2021/11/16 06:14:33;;;;;;;19.21;11.24;;;;;;;6.70;88.65;99835.50;2022646;80;20337;-77
2021/11/16 06:17:40;;;;;;;15.63;10.38;;;;;;;6.68;88.65;99842.34;2017502;77;20888;-77
2021/11/16 06:20:45;;;;;;;18.98;10.92;;;;;;;6.67;88.75;99848.34;2018279;80;20325;-78
2021/11/16 06:23:50;;;;;;;19.39;10.75;;;;;;;6.64;88.85;99856.91;2014805;80;20746;-78
2021/11/16 06:26:52;;;;;;;19.30;10.39;;;;;;;6.66;89.12;99857.81;2017538;80;20397;-78
2021/11/16 06:29:56;;;;;;;16.76;9.86;;;;;;;6.67;89.05;99863.81;2018693;80;20337;-78
2021/11/16 06:32:58;;;;;;;17.11;10.69;;;;;;;6.68;89.10;99864.69;2016840;77;23063;-78
2021/11/16 06:36:01;;;;;;;19.77;10.93;;;;;;;6.70;89.11;99869.03;2019243;80;20358;-78
2021/11/16 06:39:10;;;;;;;21.09;11.57;;;;;;;6.70;89.11;99869.03;2019414;80;20334;-78
2021/11/16 06:42:13;;;;;;;;;;;;;;;6.71;89.18;99867.34;2020929;80;20416;-80
2021/11/16 06:45:16;;;;;;;14.13;8.93;;;;;;;6.70;89.24;99874.19;2021356;80;20079;-80
2021/11/16 06:48:20;;;;;;;19.61;11.04;;;;;;;6.69;89.30;99876.75;2016191;78;24327;-79
2021/11/16 06:51:23;;;;;;;20.75;12.15;;;;;;;6.70;89.32;99879.38;2015804;80;20310;-80
2021/11/16 06:54:26;;;;;;;19.54;10.69;;;;;;;6.69;89.15;99869.88;2015775;80;20346;-80
2021/11/16 06:57:29;;;;;;;18.84;10.64;;;;;;;6.68;89.09;99877.59;2016941;80;20359;-80
2021/11/16 07:00:33;;;;;;;19.09;10.81;;;;;;;6.65;89.09;99874.13;2015335;77;23162;-79
2021/11/16 07:03:36;;;;;;;19.35;11.19;;;;;;;6.64;89.27;99882.72;2009641;80;20425;-80
2021/11/16 07:06:46;;;;;;;18.75;11.24;;;;;;;6.66;89.29;99882.72;2017127;80;21276;-79
2021/11/16 07:09:49;;;;;;;16.71;10.43;;;;;;;6.65;89.21;99886.16;2016840;80;20335;-80
2021/11/16 07:13:42;;;;;;;17.36;10.73;;;;;;;6.63;89.27;99882.66;2022824;80;20351;-80
2021/11/16 07:17:12;;;;;;;19.36;10.20;;;;;;;6.62;89.25;99884.34;2008206;80;20322;-81
2021/11/16 07:20:25;;;;;;;18.01;9.98;;;;;;;6.60;89.42;99887.75;2015389;80;20853;-81
2021/11/16 07:24:04;;;;;;;22.10;10.85;;;;;;;6.62;89.49;99886.06;2015115;80;21183;-80
2021/11/16 07:28:10;;;;;;;19.36;10.60;;;;;;;6.66;89.50;99885.31;2007905;81;20328;-81
2021/11/16 07:31:44;;;;;;;18.09;10.66;;;;;;;6.71;89.47;99901.75;2006919;81;20215;-81
2021/11/16 07:35:38;;;;;;;20.75;10.81;;;;;;;6.68;89.26;99901.69;1999907;81;20309;-81
2021/11/16 07:38:52;;;;;;;20.74;10.89;;;;;;;6.64;89.39;99898.19;1991945;81;20519;-80
2021/11/16 07:46:13;;;;;;;17.99;11.04;;;;;;;6.69;89.54;99910.31;2031297;70;38897;-79
2021/11/16 07:49:15;;;;;;;18.46;11.18;;;;;;;6.72;89.65;99920.69;2027097;80;20312;-79
2021/11/16 07:52:28;;;;;;;18.21;11.07;;;;;;;6.69;89.44;99916.34;2027486;80;20308;-80
2021/11/16 07:55:30;;;;;;;23.01;11.41;;;;;;;6.71;89.36;99918.94;2027907;80;20346;-78
2021/11/16 07:58:50;;;;;;;17.23;11.01;;;;;;;6.72;89.40;99915.53;2030026;80;20829;-79
2021/11/16 08:06:06;;;;;;;20.30;11.76;;;;;;;6.77;89.33;99913.88;2034014;79;20334;-78
2021/11/16 08:08:56;;;;;;;18.44;10.94;;;;;;;6.77;89.37;99908.72;2032270;79;20339;-78
2021/11/16 08:15:20;;;;;;;21.50;10.91;;;;;;;6.77;89.14;99911.31;2033496;77;20771;-79
2021/11/16 08:18:22;;;;;;;20.41;11.63;;;;;;;6.79;89.12;99912.19;2034069;79;21320;-80
2021/11/16 08:21:26;;;;;;;19.41;11.23;;;;;;;6.80;89.11;99908.78;2032982;79;20338;-80
2021/11/16 08:24:31;;;;;;;20.64;11.45;;;;;;;6.82;89.23;99908.00;2034263;79;20334;-80
2021/11/16 08:27:39;;;;;;;20.15;11.68;;;;;;;6.82;89.16;99908.00;2033165;79;20383;-80
2021/11/16 08:30:42;;;;;;;21.51;12.31;;;;;;;6.80;89.04;99908.78;2032782;77;22088;-80
2021/11/16 08:33:45;;;;;;;18.76;11.65;;;;;;;6.79;89.07;99912.19;2034764;79;20303;-80
2021/11/16 08:36:54;;;;;;;19.10;12.29;;;;;;;6.77;89.12;99901.84;2033953;79;20422;-80
2021/11/16 08:40:00;;;;;;;21.98;12.09;;;;;;;6.81;89.30;99903.63;2034459;79;20382;-80
2021/11/16 08:43:13;;;;;;;19.70;12.55;;;;;;;6.82;89.34;99897.66;2032751;79;21027;-79
2021/11/16 08:46:30;;;;;;;20.80;12.04;;;;;;;6.85;89.29;99889.13;2032242;77;24736;-80
2021/11/16 08:49:33;;;;;;;17.79;11.05;;;;;;;6.84;89.32;99895.97;2033546;79;20356;-80
2021/11/16 08:52:37;;;;;;;20.24;12.57;;;;;;;6.88;89.40;99896.91;2032642;79;20362;-80
2021/11/16 08:55:42;;;;;;;20.00;11.32;;;;;;;6.89;89.46;99896.94;2034556;79;20352;-81
2021/11/16 08:59:13;;;;;;;20.52;12.76;;;;;;;6.90;89.69;99897.81;2033738;79;20400;-81
2021/11/16 09:02:21;;;;;;;23.96;13.32;;;;;;;6.90;89.87;99898.66;2026931;76;32668;-81
2021/11/16 09:05:41;;;;;;;24.27;13.64;;;;;;;6.90;89.73;99888.34;2028270;80;20350;-79
2021/11/16 09:09:14;;;;;;;22.98;13.21;;;;;;;6.93;89.63;99893.56;2029477;80;20446;-81
2021/11/16 09:12:17;;;;;;;25.09;13.81;;;;;;;6.96;89.36;99900.47;2023255;80;20772;-79
2021/11/16 09:15:35;;;;;;;21.65;13.65;;;;;;;6.99;89.17;99900.53;2024215;77;23527;-79
2021/11/16 09:18:39;;;;;;;24.04;14.47;;;;;;;7.00;88.82;99901.41;2026507;80;20393;-80
2021/11/16 09:21:42;;;;;;;23.86;14.27;;;;;;;7.02;88.71;99907.50;2025722;80;20240;-80
2021/11/16 09:24:47;;;;;;;24.38;14.29;;;;;;;7.02;88.52;99904.91;2026885;80;20926;-80
2021/11/16 09:28:00;;;;;;;23.21;14.36;;;;;;;7.03;88.26;99912.69;2025605;80;20412;-80
2021/11/16 09:31:19;;;;;;;25.71;14.68;;;;;;;7.05;88.12;99908.41;2025861;77;24131;-79
2021/11/16 09:34:28;;;;;;;23.38;14.26;;;;;;;7.06;87.98;99898.94;2025990;80;20281;-80
2021/11/16 09:37:32;;;;;;;26.60;15.23;;;;;;;7.08;87.96;99898.13;2026704;80;20400;-79
2021/11/16 09:40:35;;;;;;;26.44;14.51;;;;;;;7.10;87.93;99904.19;2030036;80;20183;-80
2021/11/16 09:43:38;;;;;;;26.33;15.45;;;;;;;7.12;87.93;99910.25;2025702;80;20343;-79
2021/11/16 09:46:47;;;;;;;25.83;15.59;;;;;;;7.15;87.78;99909.41;2025484;77;28085;-80
2021/11/16 09:50:04;;;;;;;26.98;15.63;;;;;;;7.15;87.68;99914.59;2025737;80;20411;-80
2021/11/16 09:53:16;;;;;;;25.64;15.36;;;;;;;7.16;87.46;99909.44;2027002;80;20292;-79
2021/11/16 09:56:24;;;;;;;23.63;14.99;;;;;;;7.16;87.13;99904.28;2025867;80;20381;-80
2021/11/16 09:59:27;;;;;;;26.93;15.64;;;;;;;7.18;87.03;99901.72;2027163;79;20868;-79
2021/11/16 10:02:30;;;;;;;29.54;16.36;;;;;;;7.20;87.08;99906.09;2028127;77;22044;-80
2021/11/16 10:05:43;;;;;;;28.36;17.16;;;;;;;7.21;87.04;99902.66;2032633;79;20412;-80
2021/11/16 10:08:46;;;;;;;28.38;16.16;;;;;;;7.21;86.88;99909.56;2028654;79;20375;-80
2021/11/16 10:11:52;;;;;;;28.79;17.17;;;;;;;7.20;86.87;99902.66;2032215;79;20686;-80
2021/11/16 10:14:57;;;;;;;31.30;16.44;;;;;;;7.20;87.05;99903.53;2032659;79;20335;-79
2021/11/16 10:18:00;;;;;;;27.95;17.26;;;;;;;7.21;87.25;99906.97;2030989;77;28998;-80
2021/11/16 10:21:04;;;;;;;27.49;15.89;;;;;;;7.22;87.37;99901.81;2032144;79;20871;-80
2021/11/16 10:24:32;;;;;;;29.25;16.69;;;;;;;7.23;87.33;99900.97;2031569;79;20315;-80
2021/11/16 10:27:37;;;;;;;28.49;16.54;;;;;;;7.21;87.28;99894.94;2032192;79;20262;-80
2021/11/16 10:30:40;;;;;;;28.30;16.45;;;;;;;7.23;87.38;99898.41;2030307;77;31591;-79
2021/11/16 10:33:49;;;;;;;27.31;15.43;;;;;;;7.24;87.61;99896.69;2032119;80;20310;-80
2021/11/16 10:37:03;;;;;;;;;;;;;;;7.25;87.53;99893.25;2032216;80;20307;-79
2021/11/16 10:40:13;;;;;;;29.01;14.45;;;;;;;7.23;87.51;99888.06;2032910;79;20533;-79
2021/11/16 10:43:17;;;;;;;26.76;15.04;;;;;;;7.22;87.57;99882.88;2033201;80;20310;-79
2021/11/16 10:46:36;;;;;;;27.65;16.65;;;;;;;7.21;87.69;99883.72;2033995;79;20394;-81
2021/11/16 10:49:53;;;;;;;28.48;15.79;;;;;;;7.22;87.74;99878.59;2031554;79;20335;-78
2021/11/16 10:53:10;;;;;;;29.36;16.95;;;;;;;7.22;87.55;99875.13;2031470;79;20336;-78
2021/11/16 10:56:17;;;;;;;27.66;15.57;;;;;;;7.21;87.37;99878.56;2032118;79;20360;-78
2021/11/16 10:59:28;;;;;;;26.49;16.06;;;;;;;7.22;87.39;99882.88;2030790;79;20335;-78
2021/11/16 11:02:31;;;;;;;28.71;16.70;;;;;;;7.24;87.51;99876.88;2030114;77;23186;-77
2021/11/16 11:05:34;;;;;;;28.88;16.54;;;;;;;7.22;87.60;99868.25;2031938;79;20326;-77
2021/11/16 11:08:47;;;;;;;26.79;17.25;;;;;;;7.25;87.65;99862.25;2031310;79;20319;-77
2021/11/16 11:11:53;;;;;;;29.95;16.39;;;;;;;7.26;87.88;99859.72;2028880;79;20339;-77
2021/11/16 11:14:56;;;;;;;25.96;16.31;;;;;;;7.25;87.55;99860.56;2029591;79;20311;-77
2021/11/16 11:18:06;;;;;;;26.58;15.89;;;;;;;7.24;87.50;99863.97;2028226;77;23292;-80
2021/11/16 11:21:23;;;;;;;27.73;15.56;;;;;;;7.27;87.58;99865.75;2029220;79;20435;-78
2021/11/16 11:24:40;;;;;;;27.40;15.57;;;;;;;7.28;87.42;99852.84;2028398;79;20330;-78
2021/11/16 11:27:57;;;;;;;27.89;16.77;;;;;;;7.30;87.28;99849.41;2029247;79;20322;-78
2021/11/16 11:31:00;;;;;;;26.16;15.74;;;;;;;7.31;87.08;99851.16;2028731;77;23490;-78
2021/11/16 11:34:03;;;;;;;26.20;15.36;;;;;;;7.31;86.93;99851.16;2025155;79;20711;-78
2021/11/16 11:37:19;;;;;;;26.81;15.89;;;;;;;7.32;86.88;99851.19;2028948;79;20365;-78
2021/11/16 11:40:25;;;;;;;25.26;15.09;;;;;;;7.31;86.58;99844.28;2029650;79;20314;-78
2021/11/16 11:43:30;;;;;;;27.50;16.95;;;;;;;7.29;86.84;99840.81;2028466;79;20375;-78
2021/11/16 11:46:59;;;;;;;29.74;15.46;;;;;;;7.29;87.26;99845.97;2027808;77;24801;-77
2021/11/16 11:50:20;;;;;;;23.80;14.39;;;;;;;7.31;87.53;99840.81;2029787;79;20326;-78
2021/11/16 11:53:30;;;;;;;26.00;15.56;;;;;;;7.31;87.16;99838.25;2029117;79;21085;-78
2021/11/16 11:56:35;;;;;;;24.19;14.21;;;;;;;7.26;86.79;99835.59;2028555;79;20395;-78
2021/11/16 11:59:38;;;;;;;25.49;15.69;;;;;;;7.25;86.75;99828.69;2028565;79;20831;-78
2021/11/16 12:02:42;;;;;;;23.90;15.18;;;;;;;7.27;86.89;99833.03;2027286;77;53500;-78
2021/11/16 12:05:45;;;;;;;24.01;13.90;;;;;;;7.30;86.97;99828.75;2028332;79;20327;-78
2021/11/16 12:08:50;;;;;;;22.99;14.65;;;;;;;7.31;86.89;99817.56;2028844;79;20368;-78
2021/11/16 12:11:54;;;;;;;21.86;14.02;;;;;;;7.31;86.92;99820.16;2028668;79;20322;-78
2021/11/16 12:15:08;;;;;;;23.35;14.14;;;;;;;7.32;86.93;99822.75;2027936;79;21002;-78
2021/11/16 12:18:11;;;;;;;22.23;13.69;;;;;;;7.31;86.87;99817.56;2022189;77;22010;-78
2021/11/16 12:21:34;;;;;;;22.06;13.93;;;;;;;7.27;86.56;99817.53;2020089;80;20320;-78
2021/11/16 12:24:37;;;;;;;24.17;13.93;;;;;;;7.28;86.61;99820.97;2022747;80;20418;-78
2021/11/16 12:27:39;;;;;;;20.81;13.11;;;;;;;7.28;86.85;99808.06;2018520;80;20376;-78
2021/11/16 12:30:47;;;;;;;23.42;14.15;;;;;;;7.24;86.93;99803.72;2023179;77;27104;-78
2021/11/16 12:33:50;;;;;;;26.54;14.84;;;;;;;7.25;87.05;99801.16;2028534;79;21284;-78
2021/11/16 12:36:53;;;;;;;23.65;14.38;;;;;;;7.26;87.17;99800.31;2028752;79;20310;-78
2021/11/16 12:39:59;;;;;;;27.09;15.11;;;;;;;7.27;87.06;99796.00;2028365;79;20422;-78
2021/11/16 12:43:25;;;;;;;24.77;15.27;;;;;;;7.24;87.09;99802.00;2028311;79;20448;-78
2021/11/16 12:46:29;;;;;;;23.45;14.55;;;;;;;7.25;87.63;99798.56;2026832;78;21444;-78
2021/11/16 12:49:43;;;;;;;21.63;13.74;;;;;;;7.24;87.97;99791.66;2029316;79;20359;-78
2021/11/16 12:52:49;;;;;;;25.34;14.90;;;;;;;7.27;88.15;99794.28;2029042;79;20928;-78
2021/11/16 12:55:52;;;;;;;24.10;14.35;;;;;;;7.29;88.28;99789.16;2028374;79;20303;-78
2021/11/16 12:58:57;;;;;;;28.80;18.25;;;;;;;7.25;88.21;99785.66;2028676;79;20298;-78
2021/11/16 13:02:04;;;;;;;24.08;15.15;;;;;;;7.24;88.05;99783.06;2027534;77;22710;-78
2021/11/16 13:05:09;;;;;;;27.96;15.52;;;;;;;7.23;87.96;99789.94;2028641;79;20326;-78
2021/11/16 13:08:26;;;;;;;25.58;14.93;;;;;;;7.20;87.81;99781.28;2027710;79;20342;-78
2021/11/16 13:11:42;;;;;;;24.48;14.90;;;;;;;7.19;87.89;99789.88;2028756;79;20995;-78
2021/11/16 13:14:45;;;;;;;25.52;14.61;;;;;;;7.22;87.79;99782.16;2028742;79;20410;-78
2021/11/16 13:18:04;;;;;;;25.26;15.49;;;;;;;7.23;87.93;99781.31;2027365;77;22831;-79
2021/11/16 13:21:20;;;;;;;25.04;14.36;;;;;;;7.24;88.06;99783.06;2027969;79;20299;-78
2021/11/16 13:24:37;;;;;;;26.34;14.34;;;;;;;7.23;88.30;99771.84;2028859;79;20210;-78
2021/11/16 13:27:51;;;;;;;25.61;14.23;;;;;;;7.25;88.50;99772.75;2027965;79;20375;-78
2021/11/16 13:31:00;;;;;;;24.17;14.48;;;;;;;7.27;88.15;99767.59;2026224;77;22810;-78
2021/11/16 13:34:10;;;;;;;25.35;15.00;;;;;;;7.25;87.81;99758.97;2027943;79;20419;-78
2021/11/16 13:37:21;;;;;;;24.29;14.56;;;;;;;7.24;87.56;99764.97;2028272;79;20202;-78
2021/11/16 13:40:24;;;;;;;27.38;15.26;;;;;;;7.25;87.56;99766.72;2028325;79;20318;-76
2021/11/16 13:43:26;;;;;;;26.95;14.93;;;;;;;7.24;87.61;99763.25;2028137;79;20910;-76
2021/11/16 13:46:29;;;;;;;27.94;15.25;;;;;;;7.27;87.58;99765.00;2027275;77;20318;-75
2021/11/16 13:49:41;;;;;;;27.09;14.55;;;;;;;7.30;87.73;99764.19;2029360;79;20366;-76
2021/11/16 13:52:48;;;;;;;22.58;13.88;;;;;;;7.31;87.84;99771.09;2029430;79;20303;-76
2021/11/16 13:55:50;;;;;;;25.44;14.73;;;;;;;7.31;87.80;99760.75;2027422;79;20406;-78
2021/11/16 13:58:54;;;;;;;24.39;14.81;;;;;;;7.31;87.79;99756.44;2029013;79;20311;-78
2021/11/16 14:02:00;;;;;;;25.69;14.15;;;;;;;7.26;87.70;99755.53;2025773;77;23910;-78
2021/11/16 14:05:07;;;;;;;25.59;13.65;;;;;;;7.27;87.86;99763.28;2028148;79;20319;-78
2021/11/16 14:08:13;;;;;;;23.81;14.40;;;;;;;7.30;87.87;99753.84;2023929;79;20298;-76
2021/11/16 14:11:17;;;;;;;30.79;14.73;;;;;;;7.31;87.93;99761.63;2024655;79;20327;-77
2021/11/16 14:14:22;;;;;;;25.80;14.16;;;;;;;7.30;87.84;99757.31;2029884;79;20958;-78
2021/11/16 14:17:25;;;;;;;23.77;14.56;;;;;;;7.22;87.38;99752.03;2025827;77;21767;-76
2021/11/16 14:20:29;;;;;;;28.56;14.36;;;;;;;7.18;87.52;99745.09;2028085;79;20399;-76
2021/11/16 14:23:35;;;;;;;24.46;14.40;;;;;;;7.18;87.56;99749.38;2027990;79;21385;-76
2021/11/16 14:26:41;;;;;;;24.79;13.73;;;;;;;7.16;87.55;99751.94;2029129;79;20307;-76
2021/11/16 14:29:44;;;;;;;29.63;13.86;;;;;;;7.12;87.75;99747.56;2028293;79;20303;-76
2021/11/16 14:32:48;;;;;;;25.06;14.09;;;;;;;7.14;87.92;99740.72;2026999;77;21703;-76
2021/11/16 14:35:55;;;;;;;23.46;13.51;;;;;;;7.15;87.83;99744.16;2023984;80;20318;-77
2021/11/16 14:39:08;;;;;;;28.41;14.23;;;;;;;7.17;87.74;99743.34;2024286;80;20893;-76
2021/11/16 14:42:15;;;;;;;26.89;14.35;;;;;;;7.16;87.75;99741.59;2028085;80;20569;-76
2021/11/16 14:45:21;;;;;;;21.58;13.06;;;;;;;7.15;87.68;99739.00;2026858;80;20334;-76
2021/11/16 14:48:30;;;;;;;29.69;14.86;;;;;;;7.17;87.75;99740.75;2025435;80;20470;-76
2021/11/16 14:51:40;;;;;;;24.06;13.51;;;;;;;7.14;87.68;99743.28;2031697;79;20973;-78
2021/11/16 14:54:44;;;;;;;25.83;13.65;;;;;;;7.13;87.82;99751.03;2034347;79;20190;-79